Keene, NY (12942)

08:35 PM EST on êواêر 21, 2017 (GMT -0500)
Chickadee Hill | | Change Station

Elev 958 ft 44.25 °N, 73.80 °W | Updated 38 seconds ago

غائم
غائم
36.1 °F
Feels Like 36 °F
N
0.0
ريح متغير ريح from جنوب شرقی
Gusts 0.0 mph

هذا اليوم
High -- | Low -- °F
--% Chance of Precip.
Yesterday
High -- | Low -- °F
Precip. -- في
الضغط 29.72 في
وضوح الرؤية 0.2 أميال
سحابات
رياح باردة 36 °F
نقطة الندى 33 °F
الرطوبة 89%
Rainfall 0.00 في
عمق الثلج Not available.
7:23 AM 4:50 PM
الهلال الأخير, 30% visible
SPECI KSLK 220131Z AUTO 24003KT 1/4SM FG VV003 03/02 A2972 RMK AO2 T00280017 $
الضغط 29.72 في
وضوح الرؤية 0.2 أميال
سحابات
رياح باردة 36 °F
نقطة الندى 33 °F
الرطوبة 89%
Rainfall 0.00 في
عمق الثلج Not available.
7:23 AM 4:50 PM
الهلال الأخير, 30% visible
SPECI KSLK 220131Z AUTO 24003KT 1/4SM FG VV003 03/02 A2972 RMK AO2 T00280017 $

Get Your Daily Forecast Email!

Thanks for signing up!

Be on the lookout for a verification email in your inbox.

You'll start receiving the daily forecast at 8 AM.

×

10-Day Weather Forecast

Almanac

علم الفلك

Jan. 21, 2017 Rise Set
Actual Time
Civil Twilight
Nautical Twilight
Astronomical Twilight
قمر
Length Of Visible Light
طول الیوم
Tomorrow will be .
, % of the Moon is Illuminated

Today's Extremes

State Highs State Lows

Community

WunderPhotos

Upload Photos

1,962,540 photos uploaded!

WunderBlog® & News

Nearby

جودة الهواء

  جودة الهواء AQ Index Pollutant
Not available.

عمق الثلج

Station Depth Elevation

Earthquake Activity

City Distance Mag. Time & Date
Minimum magnitude displayed is 2.5.

Coastal Water Temperatures

مكان درجات الحرارة

Stations

Nearby Weather Stations

Station Location الحرارة رياح باردة نقطة الندى الرطوبة ريح Precip. Elev تحديث Type
                   

Watches & Warnings

There are currently no watches in effect.